John P. Brown — WDA9975 — position and weather

sailwx.info

Track history (hours):
 
Tides and Currents Weather Stations Pressure Air Temp Water Temp Dewpoint Dewpoint Depression Visibility Wind Speed Wind Dir Waves Ship Positions

John P. Brown

Owner: THOMAS J. BROWN & SONS INC., STATEN ISLAND, NY. More information available from US FCC via Universal Licensing System and Coast Guard Vessel Documentation Center.

Last reported at 2017-Oct-20 20:52 UTC. Time now 2017-Oct-22 22:53 UTC.
Position N 40°38' W 074°10'.

Length 23 m; draft 2.8 m.

Type: Tug. MMSI: 366870980.

Date/timePositionNaut miles runAvg speedWind from/ knotsBaromVisibWave heightAir tempDewpointWater temp
2017-Oct-20 20:52N 40°38' W 074°10'3 8.8
2017-Oct-20 20:30N 40°39' W 074°06'2 3.3
2017-Oct-20 19:59N 40°41' W 074°05'0 0.2
2017-Oct-20 19:31N 40°40' W 074°05'1 2.7
2017-Oct-20 19:00N 40°39' W 074°05'4 6.9
2017-Oct-20 18:28N 40°39' W 074°10'2 4.4
2017-Oct-20 17:59N 40°38' W 074°12'1 2.5
2017-Oct-20 17:29N 40°39' W 074°11'1 2.3
2017-Oct-20 17:00N 40°38' W 074°10'0 0.0
2017-Oct-19 18:40N 40°38' W 074°10'0 1.3
2017-Oct-19 18:30N 40°38' W 074°09'3 6.4
2017-Oct-19 18:00N 40°39' W 074°05'4 7.2
2017-Oct-19 17:30N 40°42' W 074°02'2 3.2
2017-Oct-19 17:00N 40°40' W 074°03'3 6.0
2017-Oct-19 16:30N 40°37' W 074°03'2 3.7
2017-Oct-19 15:59N 40°35' W 074°02'510.1
2017-Oct-19 15:29N 40°39' W 074°07'2 4.3
2017-Oct-19 15:00N 40°38' W 074°09'3 5.2
2017-Oct-19 14:30N 40°41' W 074°08'0 0.5
2017-Oct-19 14:00N 40°41' W 074°08'0 0.2
2017-Oct-19 13:29N 40°41' W 074°08'0 0.4
2017-Oct-19 13:00N 40°41' W 074°08'0 0.1
2017-Oct-19 12:30N 40°41' W 074°08'3 5.9
2017-Oct-19 12:00N 40°38' W 074°10'0 0.1
2017-Oct-19 11:30N 40°38' W 074°10'0 0.0
2017-Oct-18 17:50N 40°38' W 074°10'1 3.5
2017-Oct-18 17:30N 40°39' W 074°08'2 5.1
2017-Oct-18 17:01N 40°39' W 074°05'2 3.1
2017-Oct-18 16:30N 40°41' W 074°04'2 3.1
2017-Oct-18 16:00N 40°40' W 074°03'1 2.5
2017-Oct-18 15:31N 40°39' W 074°02'0 0.0
2017-Oct-18 15:00N 40°39' W 074°02'3 2.8
2017-Oct-18 14:01N 40°41' W 074°04'0 0.0
2017-Oct-18 13:30N 40°41' W 074°04'2 4.9
2017-Oct-18 13:00N 40°39' W 074°02'0 0.6
2017-Oct-18 12:31N 40°39' W 074°02'1 1.7
2017-Oct-18 12:01N 40°39' W 074°03'2 3.8
2017-Oct-18 11:30N 40°41' W 074°04'1 2.0
2017-Oct-18 11:01N 40°40' W 074°04'4 8.1
2017-Oct-18 10:30N 40°38' W 074°09'0 0.0
2017-Oct-17 17:32N 40°38' W 074°10'0 0.0
2017-Oct-17 17:30N 40°38' W 074°10'1 1.2
2017-Oct-17 17:00N 40°39' W 074°10'1 0.9
2017-Oct-17 15:39N 40°38' W 074°12'0 0.0
2017-Oct-17 15:30N 40°38' W 074°12'1 1.8
2017-Oct-17 15:00N 40°39' W 074°11'5 9.4
2017-Oct-17 14:30N 40°43' W 074°07'1 2.4
2017-Oct-17 14:00N 40°44' W 074°07'3 5.2
2017-Oct-17 13:30N 40°41' W 074°08'3 5.7
2017-Oct-17 13:00N 40°38' W 074°09'3 5.7
2017-Oct-17 12:30N 40°39' W 074°05'4 7.8
2017-Oct-17 12:00N 40°40' W 074°00'1 2.6
2017-Oct-17 11:30N 40°41' W 074°01'2 4.0
2017-Oct-17 11:00N 40°42' W 073°59'0 0.1
2017-Oct-17 10:30N 40°42' W 073°59'4 8.7
2017-Oct-17 10:00N 40°40' W 074°03'5 9.0
2017-Oct-17 09:30N 40°38' W 074°09'1 1.2
2017-Oct-17 09:00N 40°38' W 074°10'0 0.0
2017-Oct-16 19:37N 40°38' W 074°10'0 0.0
2017-Oct-16 19:30N 40°38' W 074°10'0 0.0
2017-Oct-16 19:00N 40°38' W 074°10'0 0.0
2017-Oct-16 18:29N 40°38' W 074°10'0 0.0
2017-Oct-16 18:00N 40°38' W 074°10'  
2017-Oct-13 18:49N 40°38' W 074°10'0 0.0
2017-Oct-13 18:30N 40°38' W 074°10'0 0.0
2017-Oct-13 17:57N 40°38' W 074°10'0 0.0
2017-Oct-13 17:29N 40°38' W 074°10'0 0.0
2017-Oct-13 17:00N 40°38' W 074°10'0 0.0
2017-Oct-13 16:30N 40°38' W 074°10'0 0.0
2017-Oct-13 16:00N 40°38' W 074°10'0 0.0
2017-Oct-13 15:30N 40°38' W 074°10'0 0.0
2017-Oct-13 15:00N 40°38' W 074°10'0 0.0
2017-Oct-13 14:30N 40°38' W 074°10'0 0.0
2017-Oct-13 14:00N 40°38' W 074°10'0 0.0
2017-Oct-13 12:02N 40°38' W 074°10'0 0.0
2017-Oct-13 12:00N 40°38' W 074°10'0 0.0
2017-Oct-12 18:40N 40°38' W 074°10'0 0.0
2017-Oct-12 18:30N 40°38' W 074°10'0 0.0
2017-Oct-12 18:00N 40°38' W 074°10'0 0.0
2017-Oct-12 17:29N 40°38' W 074°10'0 0.0
2017-Oct-12 17:00N 40°38' W 074°10'0 0.0
2017-Oct-12 16:30N 40°38' W 074°10'0 0.0
2017-Oct-12 15:59N 40°38' W 074°10'0 0.0
2017-Oct-12 15:29N 40°38' W 074°10'3 7.1
2017-Oct-12 15:00N 40°39' W 074°05'2 2.0
2017-Oct-12 14:00N 40°40' W 074°03'1 2.5
2017-Oct-12 13:30N 40°39' W 074°02'0 0.0
2017-Oct-12 13:00N 40°39' W 074°02'2 3.2
2017-Oct-12 12:30N 40°40' W 074°03'1 2.4
2017-Oct-12 12:00N 40°41' W 074°04'1 2.0
2017-Oct-12 11:30N 40°40' W 074°04'4 7.9
2017-Oct-12 11:00N 40°38' W 074°09'1 1.1
2017-Oct-12 10:30N 40°38' W 074°10'0 0.0
2017-Oct-12 10:00N 40°38' W 074°10'0 0.0
2017-Oct-11 22:50N 40°38' W 074°10'2 5.2
2017-Oct-11 22:30N 40°39' W 074°07'4 8.7
2017-Oct-11 22:00N 40°41' W 074°03'4 7.9
2017-Oct-11 21:30N 40°45' W 074°01'1 1.5
2017-Oct-11 21:00N 40°44' W 074°01'3 6.4
2017-Oct-11 20:29N 40°41' W 074°03'2 3.2
2017-Oct-11 20:00N 40°40' W 074°05'2 3.1
2017-Oct-11 19:30N 40°41' W 074°03'4 8.9
2017-Oct-11 19:00N 40°44' W 073°58'4 8.6
2017-Oct-11 18:30N 40°47' W 073°55'0 0.5
2017-Oct-11 17:59N 40°47' W 073°55'4 8.6
2017-Oct-11 17:30N 40°44' W 073°58'4 8.8
2017-Oct-11 17:00N 40°40' W 074°02'  
Track history (hours):
 
Tides and Currents Weather Stations Pressure Air Temp Water Temp Dewpoint Dewpoint Depression Visibility Wind Speed Wind Dir Waves Ship Positions

John P. Brown

Owner: THOMAS J. BROWN & SONS INC., STATEN ISLAND, NY. More information available from US FCC via Universal Licensing System and Coast Guard Vessel Documentation Center.

Last reported at 2017-Oct-20 20:52 UTC. Time now 2017-Oct-22 22:53 UTC.
Position N 40°38' W 074°10'.

Length 23 m; draft 2.8 m.

Type: Tug. MMSI: 366870980.

Date/timePositionNaut miles runAvg speedWind from/ knotsBaromVisibWave heightAir tempDewpointWater temp
2017-Oct-20 20:52N 40°38' W 074°10'3 8.8
2017-Oct-20 20:30N 40°39' W 074°06'2 3.3
2017-Oct-20 19:59N 40°41' W 074°05'0 0.2
2017-Oct-20 19:31N 40°40' W 074°05'1 2.7
2017-Oct-20 19:00N 40°39' W 074°05'4 6.9
2017-Oct-20 18:28N 40°39' W 074°10'2 4.4
2017-Oct-20 17:59N 40°38' W 074°12'1 2.5
2017-Oct-20 17:29N 40°39' W 074°11'1 2.3
2017-Oct-20 17:00N 40°38' W 074°10'0 0.0
2017-Oct-19 18:40N 40°38' W 074°10'0 1.3
2017-Oct-19 18:30N 40°38' W 074°09'3 6.4
2017-Oct-19 18:00N 40°39' W 074°05'4 7.2
2017-Oct-19 17:30N 40°42' W 074°02'2 3.2
2017-Oct-19 17:00N 40°40' W 074°03'3 6.0
2017-Oct-19 16:30N 40°37' W 074°03'2 3.7
2017-Oct-19 15:59N 40°35' W 074°02'510.1
2017-Oct-19 15:29N 40°39' W 074°07'2 4.3
2017-Oct-19 15:00N 40°38' W 074°09'3 5.2
2017-Oct-19 14:30N 40°41' W 074°08'0 0.5
2017-Oct-19 14:00N 40°41' W 074°08'0 0.2
2017-Oct-19 13:29N 40°41' W 074°08'0 0.4
2017-Oct-19 13:00N 40°41' W 074°08'0 0.1
2017-Oct-19 12:30N 40°41' W 074°08'3 5.9
2017-Oct-19 12:00N 40°38' W 074°10'0 0.1
2017-Oct-19 11:30N 40°38' W 074°10'0 0.0
2017-Oct-18 17:50N 40°38' W 074°10'1 3.5
2017-Oct-18 17:30N 40°39' W 074°08'2 5.1
2017-Oct-18 17:01N 40°39' W 074°05'2 3.1
2017-Oct-18 16:30N 40°41' W 074°04'2 3.1
2017-Oct-18 16:00N 40°40' W 074°03'1 2.5
2017-Oct-18 15:31N 40°39' W 074°02'0 0.0
2017-Oct-18 15:00N 40°39' W 074°02'3 2.8
2017-Oct-18 14:01N 40°41' W 074°04'0 0.0
2017-Oct-18 13:30N 40°41' W 074°04'2 4.9
2017-Oct-18 13:00N 40°39' W 074°02'0 0.6
2017-Oct-18 12:31N 40°39' W 074°02'1 1.7
2017-Oct-18 12:01N 40°39' W 074°03'2 3.8
2017-Oct-18 11:30N 40°41' W 074°04'1 2.0
2017-Oct-18 11:01N 40°40' W 074°04'4 8.1
2017-Oct-18 10:30N 40°38' W 074°09'0 0.0
2017-Oct-17 17:32N 40°38' W 074°10'0 0.0
2017-Oct-17 17:30N 40°38' W 074°10'1 1.2
2017-Oct-17 17:00N 40°39' W 074°10'1 0.9
2017-Oct-17 15:39N 40°38' W 074°12'0 0.0
2017-Oct-17 15:30N 40°38' W 074°12'1 1.8
2017-Oct-17 15:00N 40°39' W 074°11'5 9.4
2017-Oct-17 14:30N 40°43' W 074°07'1 2.4
2017-Oct-17 14:00N 40°44' W 074°07'3 5.2
2017-Oct-17 13:30N 40°41' W 074°08'3 5.7
2017-Oct-17 13:00N 40°38' W 074°09'3 5.7
2017-Oct-17 12:30N 40°39' W 074°05'4 7.8
2017-Oct-17 12:00N 40°40' W 074°00'1 2.6
2017-Oct-17 11:30N 40°41' W 074°01'2 4.0
2017-Oct-17 11:00N 40°42' W 073°59'0 0.1
2017-Oct-17 10:30N 40°42' W 073°59'4 8.7
2017-Oct-17 10:00N 40°40' W 074°03'5 9.0
2017-Oct-17 09:30N 40°38' W 074°09'1 1.2
2017-Oct-17 09:00N 40°38' W 074°10'0 0.0
2017-Oct-16 19:37N 40°38' W 074°10'0 0.0
2017-Oct-16 19:30N 40°38' W 074°10'0 0.0
2017-Oct-16 19:00N 40°38' W 074°10'0 0.0
2017-Oct-16 18:29N 40°38' W 074°10'0 0.0
2017-Oct-16 18:00N 40°38' W 074°10'  
2017-Oct-13 18:49N 40°38' W 074°10'0 0.0
2017-Oct-13 18:30N 40°38' W 074°10'0 0.0
2017-Oct-13 17:57N 40°38' W 074°10'0 0.0
2017-Oct-13 17:29N 40°38' W 074°10'0 0.0
2017-Oct-13 17:00N 40°38' W 074°10'0 0.0
2017-Oct-13 16:30N 40°38' W 074°10'0 0.0
2017-Oct-13 16:00N 40°38' W 074°10'0 0.0
2017-Oct-13 15:30N 40°38' W 074°10'0 0.0
2017-Oct-13 15:00N 40°38' W 074°10'0 0.0
2017-Oct-13 14:30N 40°38' W 074°10'0 0.0
2017-Oct-13 14:00N 40°38' W 074°10'0 0.0
2017-Oct-13 12:02N 40°38' W 074°10'0 0.0
2017-Oct-13 12:00N 40°38' W 074°10'0 0.0
2017-Oct-12 18:40N 40°38' W 074°10'0 0.0
2017-Oct-12 18:30N 40°38' W 074°10'0 0.0
2017-Oct-12 18:00N 40°38' W 074°10'0 0.0
2017-Oct-12 17:29N 40°38' W 074°10'0 0.0
2017-Oct-12 17:00N 40°38' W 074°10'0 0.0
2017-Oct-12 16:30N 40°38' W 074°10'0 0.0
2017-Oct-12 15:59N 40°38' W 074°10'0 0.0
2017-Oct-12 15:29N 40°38' W 074°10'3 7.1
2017-Oct-12 15:00N 40°39' W 074°05'2 2.0
2017-Oct-12 14:00N 40°40' W 074°03'1 2.5
2017-Oct-12 13:30N 40°39' W 074°02'0 0.0
2017-Oct-12 13:00N 40°39' W 074°02'2 3.2
2017-Oct-12 12:30N 40°40' W 074°03'1 2.4
2017-Oct-12 12:00N 40°41' W 074°04'1 2.0
2017-Oct-12 11:30N 40°40' W 074°04'4 7.9
2017-Oct-12 11:00N 40°38' W 074°09'1 1.1
2017-Oct-12 10:30N 40°38' W 074°10'0 0.0
2017-Oct-12 10:00N 40°38' W 074°10'0 0.0
2017-Oct-11 22:50N 40°38' W 074°10'2 5.2
2017-Oct-11 22:30N 40°39' W 074°07'4 8.7
2017-Oct-11 22:00N 40°41' W 074°03'4 7.9
2017-Oct-11 21:30N 40°45' W 074°01'1 1.5
2017-Oct-11 21:00N 40°44' W 074°01'3 6.4
2017-Oct-11 20:29N 40°41' W 074°03'2 3.2
2017-Oct-11 20:00N 40°40' W 074°05'2 3.1
2017-Oct-11 19:30N 40°41' W 074°03'4 8.9
2017-Oct-11 19:00N 40°44' W 073°58'4 8.6
2017-Oct-11 18:30N 40°47' W 073°55'0 0.5
2017-Oct-11 17:59N 40°47' W 073°55'4 8.6
2017-Oct-11 17:30N 40°44' W 073°58'4 8.8
2017-Oct-11 17:00N 40°40' W 074°02'  

Dump ship's entire track history